Time;durP1;ratioP1;P1;durP2;ratioP2;P2;SDS_P1;SDS_P2;PMS_P1;PMS_P2;Temp;Humidity;BMP_temperature;BMP_pressure;BME280_temperature;BME280_humidity;BME280_pressure;Samples;Min_cycle;Max_cycle;Signal;HPM_P1;HPM_P2
2023/11/25 00:02:44;;;;;;;2.60;0.70;;;;;;;;;;104150;1287;544913;-73
2023/11/25 00:06:22;;;;;;;2.30;0.70;;;;;;;;;;103848;1289;546010;-73
2023/11/25 00:09:59;;;;;;;2.60;0.90;;;;;;;;;;103963;1288;545480;-74
2023/11/25 00:13:36;;;;;;;3.10;1.00;;;;;;;;;;103789;1294;544854;-74
2023/11/25 00:17:14;;;;;;;2.40;0.80;;;;;;;;;;103850;1290;544993;-73
2023/11/25 00:20:51;;;;;;;3.40;1.20;;;;;;;;;;103849;1291;545468;-72
2023/11/25 00:24:29;;;;;;;3.60;1.10;;;;;;;;;;103814;1294;545299;-73
2023/11/25 00:28:04;;;;;;;2.70;0.90;;;;;;;;;;103927;1290;545246;-73
2023/11/25 00:31:48;;;;;;;3.00;0.60;;;;;;;;;;103575;1295;545570;-72
2023/11/25 00:35:17;;;;;;;2.20;0.70;;;;;;;;;;103862;1292;545280;-72
2023/11/25 00:38:59;;;;;;;2.40;0.90;;;;;;;;;;103668;1291;545020;-73
2023/11/25 00:42:39;;;;;;;1.80;0.80;;;;;;;;;;103581;1293;544824;-74
2023/11/25 00:46:14;;;;;;;3.40;0.90;;;;;;;;;;103809;1292;545375;-74
2023/11/25 00:49:52;;;;;;;2.30;0.90;;;;;;;;;;103752;1295;545507;-74
2023/11/25 00:53:28;;;;;;;4.10;1.00;;;;;;;;;;103624;1295;545332;-72
2023/11/25 00:57:06;;;;;;;3.30;0.80;;;;;;;;;;103592;1295;544749;-73
2023/11/25 01:00:43;;;;;;;2.40;0.80;;;;;;;;;;103802;1289;545346;-74
2023/11/25 01:04:21;;;;;;;1.70;0.60;;;;;;;;;;103800;1292;545019;-75
2023/11/25 01:07:58;;;;;;;3.20;0.90;;;;;;;;;;103809;1292;544710;-73
2023/11/25 01:11:36;;;;;;;2.30;0.60;;;;;;;;;;103782;1289;544986;-76
2023/11/25 01:15:15;;;;;;;1.90;0.60;;;;;;;;;;103778;1291;546486;-71
2023/11/25 01:18:47;;;;;;;2.60;0.70;;;;;;;;;;104117;1288;544733;-74
2023/11/25 01:22:28;;;;;;;2.50;0.70;;;;;;;;;;103790;1292;545401;-75
2023/11/25 01:26:02;;;;;;;3.60;1.00;;;;;;;;;;103980;1292;545927;-73
2023/11/25 01:29:43;;;;;;;1.90;0.80;;;;;;;;;;103635;1291;545085;-72
2023/11/25 01:33:20;;;;;;;3.40;0.90;;;;;;;;;;103801;1289;545567;-75
2023/11/25 01:36:59;;;;;;;4.00;1.00;;;;;;;;;;103847;1292;544733;-72
2023/11/25 01:40:37;;;;;;;4.00;1.20;;;;;;;;;;103773;1294;545766;-72
2023/11/25 01:44:12;;;;;;;5.10;1.20;;;;;;;;;;103818;1290;545495;-72
2023/11/25 01:48:11;;;;;;;3.60;1.20;;;;;;;;;;103797;1292;544980;-73
2023/11/25 01:51:28;;;;;;;4.20;1.30;;;;;;;;;;103743;1291;545078;-72
2023/11/25 01:55:08;;;;;;;6.10;1.70;;;;;;;;;;103846;1291;544734;-72
2023/11/25 01:58:43;;;;;;;4.00;1.00;;;;;;;;;;103766;1290;545306;-73
2023/11/25 02:02:18;;;;;;;5.90;1.70;;;;;;;;;;103866;1289;544990;-74
2023/11/25 02:05:58;;;;;;;5.10;1.60;;;;;;;;;;103836;1294;546028;-72
2023/11/25 02:09:35;;;;;;;7.30;2.30;;;;;;;;;;103711;1291;544768;-72
2023/11/25 02:13:13;;;;;;;7.00;1.90;;;;;;;;;;103947;1292;544855;-72
2023/11/25 02:16:51;;;;;;;6.50;1.50;;;;;;;;;;103578;1294;545421;-75
2023/11/25 02:20:36;;;;;;;3.30;1.00;;;;;;;;;;103873;1292;545572;-72
2023/11/25 02:24:01;;;;;;;5.50;1.50;;;;;;;;;;103746;1292;544795;-74
2023/11/25 02:27:43;;;;;;;5.00;1.20;;;;;;;;;;103758;1292;544939;-72
2023/11/25 02:31:20;;;;;;;4.80;1.00;;;;;;;;;;103848;1290;545656;-71
2023/11/25 02:34:57;;;;;;;4.20;1.10;;;;;;;;;;103805;1290;545689;-75
2023/11/25 02:38:35;;;;;;;5.70;1.60;;;;;;;;;;103863;1289;544790;-76
2023/11/25 02:42:13;;;;;;;4.90;1.20;;;;;;;;;;103761;1289;545064;-74
2023/11/25 02:45:48;;;;;;;3.90;1.00;;;;;;;;;;104343;1286;546053;-72
2023/11/25 02:49:27;;;;;;;3.90;1.20;;;;;;;;;;103556;1293;545059;-72
2023/11/25 02:53:04;;;;;;;5.10;1.30;;;;;;;;;;103872;1289;545620;-72
2023/11/25 02:56:42;;;;;;;6.20;1.40;;;;;;;;;;103860;1292;545718;-72
2023/11/25 03:04:01;;;;;;;4.20;1.10;;;;;;;;;;104473;1282;545172;-73
2023/11/25 03:07:36;;;;;;;5.60;1.30;;;;;;;;;;103798;1294;545625;-72
2023/11/25 03:11:17;;;;;;;3.60;1.10;;;;;;;;;;103722;1292;545462;-73
2023/11/25 03:14:50;;;;;;;7.20;1.50;;;;;;;;;;103772;1292;545255;-74
2023/11/25 03:18:27;;;;;;;4.20;0.90;;;;;;;;;;103740;1292;544814;-72
2023/11/25 03:22:01;;;;;;;5.90;1.10;;;;;;;;;;104006;1290;544962;-74
2023/11/25 03:25:42;;;;;;;4.30;1.40;;;;;;;;;;103761;1292;545129;-75
2023/11/25 03:29:18;;;;;;;3.80;1.10;;;;;;;;;;103893;1289;545235;-72
2023/11/25 03:32:57;;;;;;;5.10;1.00;;;;;;;;;;103753;1289;544928;-73
2023/11/25 03:36:35;;;;;;;4.40;1.20;;;;;;;;;;103793;1291;545019;-75
2023/11/25 03:40:13;;;;;;;5.60;1.20;;;;;;;;;;103854;1292;545873;-75
2023/11/25 03:43:49;;;;;;;4.40;1.10;;;;;;;;;;103821;1292;544783;-73
2023/11/25 03:47:28;;;;;;;4.70;1.00;;;;;;;;;;103739;1292;545244;-73
2023/11/25 03:51:05;;;;;;;4.90;1.30;;;;;;;;;;103977;1288;545752;-75
2023/11/25 03:54:43;;;;;;;4.90;1.10;;;;;;;;;;103840;1291;544894;-73
2023/11/25 03:58:39;;;;;;;5.20;1.30;;;;;;;;;;103753;1291;548012;-76
2023/11/25 04:01:56;;;;;;;5.00;1.40;;;;;;;;;;103843;1290;545006;-73
2023/11/25 04:05:40;;;;;;;4.70;1.10;;;;;;;;;;103436;1294;548256;-72
2023/11/25 04:09:12;;;;;;;4.80;1.10;;;;;;;;;;103769;1295;545021;-72
2023/11/25 04:12:51;;;;;;;3.30;0.80;;;;;;;;;;104499;1282;545269;-73
2023/11/25 04:16:27;;;;;;;4.50;1.00;;;;;;;;;;103555;1294;545092;-74
2023/11/25 04:20:00;;;;;;;3.80;1.00;;;;;;;;;;103834;1292;545208;-73
2023/11/25 04:23:41;;;;;;;4.60;1.10;;;;;;;;;;103794;1290;544964;-77
2023/11/25 04:27:21;;;;;;;5.10;1.10;;;;;;;;;;103796;1290;544938;-73
2023/11/25 04:30:56;;;;;;;3.90;1.00;;;;;;;;;;103699;1292;544985;-72
2023/11/25 04:34:33;;;;;;;4.80;1.30;;;;;;;;;;104048;1289;545570;-72
2023/11/25 04:38:11;;;;;;;5.40;1.10;;;;;;;;;;103821;1289;544730;-73
2023/11/25 04:41:49;;;;;;;4.40;1.10;;;;;;;;;;103807;1290;545314;-73
2023/11/25 04:45:26;;;;;;;4.00;0.90;;;;;;;;;;103867;1289;544928;-73
2023/11/25 04:48:59;;;;;;;3.70;1.00;;;;;;;;;;103904;1291;544781;-73
2023/11/25 04:52:41;;;;;;;6.20;1.20;;;;;;;;;;104089;1289;544789;-73
2023/11/25 04:56:19;;;;;;;4.80;1.10;;;;;;;;;;103802;1292;545011;-73
2023/11/25 04:59:56;;;;;;;3.60;0.90;;;;;;;;;;103826;1292;544831;-74
2023/11/25 05:03:34;;;;;;;4.50;1.10;;;;;;;;;;103794;1292;545194;-72
2023/11/25 05:07:11;;;;;;;5.50;1.50;;;;;;;;;;103751;1289;546052;-74
2023/11/25 05:10:48;;;;;;;5.50;1.70;;;;;;;;;;103851;1302;544916;-73
2023/11/25 05:14:26;;;;;;;4.00;1.20;;;;;;;;;;103891;1289;545183;-73
2023/11/25 05:18:03;;;;;;;5.10;1.50;;;;;;;;;;103812;1290;544762;-73
2023/11/25 05:21:41;;;;;;;3.70;1.20;;;;;;;;;;103972;1289;544889;-73
2023/11/25 05:25:18;;;;;;;3.90;1.10;;;;;;;;;;103842;1292;545099;-73
2023/11/25 05:28:56;;;;;;;5.60;1.50;;;;;;;;;;103778;1290;544997;-73
2023/11/25 05:32:33;;;;;;;5.90;1.70;;;;;;;;;;103963;1288;545267;-72
2023/11/25 05:36:16;;;;;;;3.60;0.90;;;;;;;;;;103698;1292;548038;-72
2023/11/25 05:39:45;;;;;;;4.10;1.20;;;;;;;;;;103995;1288;544994;-71
2023/11/25 05:43:25;;;;;;;6.40;2.00;;;;;;;;;;103797;1294;545058;-73
2023/11/25 05:47:03;;;;;;;15.30;5.30;;;;;;;;;;103775;1291;544845;-72
2023/11/25 05:50:41;;;;;;;11.10;3.10;;;;;;;;;;103938;1291;545059;-73
2023/11/25 05:54:18;;;;;;;6.20;1.80;;;;;;;;;;103686;1291;545527;-72
2023/11/25 05:57:55;;;;;;;3.30;1.20;;;;;;;;;;103456;1294;544826;-73
2023/11/25 06:01:37;;;;;;;4.10;1.20;;;;;;;;;;103843;1292;544780;-73
2023/11/25 06:05:10;;;;;;;4.90;1.20;;;;;;;;;;103820;1291;545000;-73
2023/11/25 06:08:48;;;;;;;4.10;1.40;;;;;;;;;;103882;1298;544894;-73
2023/11/25 06:12:26;;;;;;;5.30;1.90;;;;;;;;;;103796;1292;544856;-73
2023/11/25 06:16:02;;;;;;;5.60;1.90;;;;;;;;;;103711;1291;545431;-73
2023/11/25 06:19:43;;;;;;;6.60;2.20;;;;;;;;;;103729;1291;545029;-73
2023/11/25 06:23:18;;;;;;;6.00;1.90;;;;;;;;;;103863;1290;544733;-72
2023/11/25 06:26:55;;;;;;;6.70;2.00;;;;;;;;;;103792;1291;544852;-73
2023/11/25 06:30:32;;;;;;;5.80;1.80;;;;;;;;;;104067;1291;544882;-74
2023/11/25 06:34:06;;;;;;;7.10;2.30;;;;;;;;;;103938;1289;544912;-74
2023/11/25 06:37:47;;;;;;;6.40;2.00;;;;;;;;;;103772;1291;545500;-73
2023/11/25 06:41:24;;;;;;;8.50;2.20;;;;;;;;;;103923;1301;544757;-71
2023/11/25 06:45:18;;;;;;;4.20;1.40;;;;;;;;;;103687;1291;547755;-73
2023/11/25 06:48:40;;;;;;;4.50;1.60;;;;;;;;;;103818;1289;545567;-73
2023/11/25 06:52:18;;;;;;;5.40;1.80;;;;;;;;;;103783;1291;544962;-74
2023/11/25 06:55:56;;;;;;;6.50;1.90;;;;;;;;;;103804;1292;544969;-72
2023/11/25 06:59:34;;;;;;;6.90;1.80;;;;;;;;;;103671;1292;545099;-72
2023/11/25 07:03:07;;;;;;;7.60;2.40;;;;;;;;;;104119;1292;545642;-73
2023/11/25 07:06:49;;;;;;;5.40;1.80;;;;;;;;;;103795;1292;545239;-75
2023/11/25 07:10:25;;;;;;;7.00;1.60;;;;;;;;;;103700;1295;545589;-73
2023/11/25 07:13:58;;;;;;;8.50;2.60;;;;;;;;;;104691;1283;544737;-72
2023/11/25 07:17:40;;;;;;;6.00;1.90;;;;;;;;;;103929;1289;545005;-72
2023/11/25 07:21:17;;;;;;;6.30;1.90;;;;;;;;;;103777;1294;545701;-73
2023/11/25 07:24:51;;;;;;;6.10;1.90;;;;;;;;;;103812;1288;545075;-74
2023/11/25 07:28:33;;;;;;;9.70;2.80;;;;;;;;;;103788;1292;544961;-73
2023/11/25 07:32:12;;;;;;;9.50;3.10;;;;;;;;;;103689;1294;545769;-73
2023/11/25 07:35:47;;;;;;;12.90;4.40;;;;;;;;;;103760;1289;545661;-73
2023/11/25 07:39:24;;;;;;;7.40;2.70;;;;;;;;;;103727;1292;544994;-73
2023/11/25 07:43:03;;;;;;;11.30;5.20;;;;;;;;;;103888;1292;545024;-73
2023/11/25 07:46:39;;;;;;;10.70;4.60;;;;;;;;;;103817;1291;545474;-75
2023/11/25 07:50:17;;;;;;;11.30;4.20;;;;;;;;;;103869;1302;545549;-73
2023/11/25 07:53:56;;;;;;;11.20;4.20;;;;;;;;;;103749;1292;544979;-72
2023/11/25 07:57:32;;;;;;;10.30;3.60;;;;;;;;;;103905;1291;545317;-73
2023/11/25 08:01:09;;;;;;;12.50;4.60;;;;;;;;;;103719;1292;545347;-73
2023/11/25 08:04:52;;;;;;;11.80;4.20;;;;;;;;;;103634;1291;545512;-75
2023/11/25 08:08:24;;;;;;;6.80;2.70;;;;;;;;;;103921;1292;544900;-74
2023/11/25 08:12:01;;;;;;;7.90;3.00;;;;;;;;;;104380;1283;546005;-74
2023/11/25 08:15:39;;;;;;;5.30;1.70;;;;;;;;;;103854;1289;545930;-72
2023/11/25 08:19:22;;;;;;;5.70;1.70;;;;;;;;;;103889;1288;549159;-74
2023/11/25 08:22:54;;;;;;;18.00;6.10;;;;;;;;;;103937;1288;544995;-73
2023/11/25 08:26:32;;;;;;;9.00;3.20;;;;;;;;;;103754;1295;544963;-73
2023/11/25 08:30:09;;;;;;;14.10;5.20;;;;;;;;;;103720;1291;545132;-75
2023/11/25 08:33:46;;;;;;;12.00;4.40;;;;;;;;;;103752;1305;546251;-73
2023/11/25 08:37:27;;;;;;;12.80;4.20;;;;;;;;;;104012;1289;545962;-74
2023/11/25 08:41:02;;;;;;;14.50;5.90;;;;;;;;;;103735;1289;545041;-72
2023/11/25 08:44:46;;;;;;;13.00;4.80;;;;;;;;;;103707;1290;548200;-73
2023/11/25 08:48:16;;;;;;;8.10;3.20;;;;;;;;;;103710;1292;545041;-72
2023/11/25 08:51:56;;;;;;;10.70;3.50;;;;;;;;;;103747;1294;549209;-74
2023/11/25 08:55:27;;;;;;;16.30;7.10;;;;;;;;;;103934;1294;545350;-73
2023/11/25 08:59:05;;;;;;;10.00;4.20;;;;;;;;;;103824;1292;545470;-73
2023/11/25 09:02:50;;;;;;;8.70;2.90;;;;;;;;;;103771;1303;545057;-74
2023/11/25 09:06:24;;;;;;;9.80;3.20;;;;;;;;;;103991;1289;544954;-73
2023/11/25 09:09:59;;;;;;;7.20;2.30;;;;;;;;;;103764;1293;545426;-74
2023/11/25 09:13:38;;;;;;;10.30;3.30;;;;;;;;;;103780;1295;545394;-74
2023/11/25 09:17:16;;;;;;;7.60;1.90;;;;;;;;;;103766;1291;545025;-75
2023/11/25 09:20:54;;;;;;;8.00;2.70;;;;;;;;;;103764;1291;544890;-73
2023/11/25 09:24:32;;;;;;;7.20;2.30;;;;;;;;;;103710;1292;546194;-74
2023/11/25 09:28:08;;;;;;;8.20;3.00;;;;;;;;;;103671;1292;544838;-73
2023/11/25 09:31:46;;;;;;;9.20;3.70;;;;;;;;;;103770;1289;544627;-74
2023/11/25 09:35:24;;;;;;;13.60;5.10;;;;;;;;;;103839;1296;545083;-73
2023/11/25 09:39:03;;;;;;;7.90;2.90;;;;;;;;;;103951;1288;545045;-73
2023/11/25 09:42:38;;;;;;;7.40;2.20;;;;;;;;;;103579;1297;545331;-73
2023/11/25 09:46:13;;;;;;;6.20;1.80;;;;;;;;;;103850;1289;545233;-74
2023/11/25 09:49:53;;;;;;;7.00;2.00;;;;;;;;;;103760;1292;544743;-71
2023/11/25 09:53:32;;;;;;;5.30;1.60;;;;;;;;;;104538;1286;546150;-73
2023/11/25 09:57:09;;;;;;;7.20;2.30;;;;;;;;;;103712;1296;545208;-74
2023/11/25 10:00:46;;;;;;;7.20;2.30;;;;;;;;;;103760;1289;545242;-73
2023/11/25 10:04:26;;;;;;;6.70;2.20;;;;;;;;;;103688;1291;544934;-75
2023/11/25 10:07:57;;;;;;;7.70;2.60;;;;;;;;;;103882;1289;545178;-74
2023/11/25 10:11:47;;;;;;;8.50;2.90;;;;;;;;;;103733;1290;545476;-73
2023/11/25 10:15:15;;;;;;;13.60;5.10;;;;;;;;;;103646;1291;544874;-75
2023/11/25 10:18:59;;;;;;;10.90;4.40;;;;;;;;;;103877;1292;549413;-73
2023/11/25 10:22:32;;;;;;;9.30;3.90;;;;;;;;;;103619;1294;545124;-77
2023/11/25 10:26:08;;;;;;;6.40;1.90;;;;;;;;;;103784;1291;544859;-73
2023/11/25 10:29:47;;;;;;;7.70;3.00;;;;;;;;;;103638;1291;545538;-75
2023/11/25 10:33:29;;;;;;;8.50;2.90;;;;;;;;;;103666;1295;547794;-75
2023/11/25 10:37:01;;;;;;;12.90;5.60;;;;;;;;;;104119;1289;544781;-74
2023/11/25 10:40:38;;;;;;;8.00;3.50;;;;;;;;;;103891;1291;544949;-74
2023/11/25 10:44:11;;;;;;;6.90;2.50;;;;;;;;;;104056;1288;544800;-73
2023/11/25 10:47:53;;;;;;;7.70;2.20;;;;;;;;;;103912;1289;545049;-73
2023/11/25 10:51:27;;;;;;;8.80;3.10;;;;;;;;;;103950;1289;545157;-71
2023/11/25 10:55:08;;;;;;;12.40;4.20;;;;;;;;;;104622;1283;544736;-75
2023/11/25 10:58:46;;;;;;;10.40;4.10;;;;;;;;;;103973;1288;545043;-75
2023/11/25 11:02:36;;;;;;;12.30;4.60;;;;;;;;;;103654;1297;545115;-73
2023/11/25 11:06:04;;;;;;;11.80;4.20;;;;;;;;;;103890;1292;547755;-75
2023/11/25 11:09:38;;;;;;;11.20;3.80;;;;;;;;;;103806;1295;545012;-74
2023/11/25 11:13:18;;;;;;;9.40;3.40;;;;;;;;;;103780;1295;544747;-73
2023/11/25 11:17:09;;;;;;;9.20;2.80;;;;;;;;;;103762;1293;545240;-73
2023/11/25 11:20:51;;;;;;;6.60;2.10;;;;;;;;;;103464;1293;548469;-75
2023/11/25 11:24:08;;;;;;;8.90;2.80;;;;;;;;;;104358;1289;545404;-72
2023/11/25 11:27:50;;;;;;;8.50;3.40;;;;;;;;;;103866;1289;544961;-73
2023/11/25 11:31:41;;;;;;;9.60;3.10;;;;;;;;;;103629;1292;549320;-73
2023/11/25 11:35:01;;;;;;;9.80;3.40;;;;;;;;;;103793;1294;544764;-74
2023/11/25 11:38:43;;;;;;;8.30;2.80;;;;;;;;;;103718;1293;544830;-74
2023/11/25 11:42:42;;;;;;;7.70;2.30;;;;;;;;;;103779;1292;546991;-73
2023/11/25 11:45:50;;;;;;;7.80;2.80;;;;;;;;;;103804;1290;544998;-72
2023/11/25 11:49:31;;;;;;;8.00;3.00;;;;;;;;;;103774;1292;544820;-72
2023/11/25 11:53:12;;;;;;;7.80;2.80;;;;;;;;;;103885;1294;544772;-74
2023/11/25 11:57:03;;;;;;;6.50;2.00;;;;;;;;;;103754;1291;545450;-73
2023/11/25 12:00:22;;;;;;;6.40;1.90;;;;;;;;;;103885;1293;544965;-72
2023/11/25 12:03:55;;;;;;;7.10;2.00;;;;;;;;;;103928;1292;545065;-72
2023/11/25 12:07:37;;;;;;;7.90;2.30;;;;;;;;;;103964;1289;545411;-72
2023/11/25 12:11:16;;;;;;;8.90;2.40;;;;;;;;;;103758;1295;545306;-74
2023/11/25 12:14:51;;;;;;;8.70;3.00;;;;;;;;;;103827;1289;545637;-74
2023/11/25 12:18:31;;;;;;;9.40;3.50;;;;;;;;;;103926;1289;545929;-76
2023/11/25 12:22:08;;;;;;;10.80;4.10;;;;;;;;;;103772;1289;544960;-73
2023/11/25 12:25:40;;;;;;;9.00;3.50;;;;;;;;;;103851;1289;544901;-75
2023/11/25 12:29:24;;;;;;;7.50;1.90;;;;;;;;;;103764;1289;545615;-72
2023/11/25 12:33:05;;;;;;;7.40;2.40;;;;;;;;;;103859;1300;547865;-75
2023/11/25 12:36:42;;;;;;;10.80;3.90;;;;;;;;;;103646;1297;547905;-72
2023/11/25 12:40:16;;;;;;;10.70;3.90;;;;;;;;;;104020;1289;545066;-72
2023/11/25 12:44:05;;;;;;;9.10;3.70;;;;;;;;;;103759;1293;544907;-73
2023/11/25 12:47:24;;;;;;;10.10;4.20;;;;;;;;;;104021;1289;544745;-72
2023/11/25 12:51:07;;;;;;;9.20;4.20;;;;;;;;;;103634;1292;544716;-76
2023/11/25 12:54:46;;;;;;;10.90;4.80;;;;;;;;;;104053;1289;544945;-73
2023/11/25 12:58:21;;;;;;;10.40;4.20;;;;;;;;;;104277;1287;545445;-72
2023/11/25 13:02:08;;;;;;;9.40;3.30;;;;;;;;;;103816;1289;545769;-74
2023/11/25 13:05:36;;;;;;;8.50;3.40;;;;;;;;;;103999;1288;545862;-71
2023/11/25 13:09:27;;;;;;;9.20;3.70;;;;;;;;;;103637;1291;547925;-73
2023/11/25 13:12:51;;;;;;;9.20;3.90;;;;;;;;;;103752;1292;545874;-73
2023/11/25 13:16:29;;;;;;;13.10;3.90;;;;;;;;;;103857;1292;544994;-73
2023/11/25 13:20:10;;;;;;;12.10;4.60;;;;;;;;;;103802;1290;544745;-72
2023/11/25 13:23:44;;;;;;;12.40;4.70;;;;;;;;;;103782;1303;544782;-72
2023/11/25 13:27:22;;;;;;;12.00;5.60;;;;;;;;;;103770;1291;545228;-71
2023/11/25 13:30:58;;;;;;;9.20;3.30;;;;;;;;;;103873;1290;544876;-72
2023/11/25 13:34:38;;;;;;;26.60;13.90;;;;;;;;;;103794;1290;545014;-73
2023/11/25 13:38:13;;;;;;;19.30;9.60;;;;;;;;;;103716;1291;545071;-73
2023/11/25 13:41:51;;;;;;;22.90;12.90;;;;;;;;;;103745;1291;546009;-72
2023/11/25 13:45:28;;;;;;;15.10;6.30;;;;;;;;;;103790;1291;545127;-76
2023/11/25 13:49:06;;;;;;;13.20;5.70;;;;;;;;;;103758;1291;544841;-73
2023/11/25 13:52:43;;;;;;;12.30;4.90;;;;;;;;;;103763;1291;545747;-71
2023/11/25 13:56:21;;;;;;;18.40;8.40;;;;;;;;;;103753;1292;545664;-75
2023/11/25 13:59:55;;;;;;;13.40;5.80;;;;;;;;;;103902;1289;545390;-71
2023/11/25 14:03:36;;;;;;;23.90;14.70;;;;;;;;;;103789;1295;545599;-74
2023/11/25 14:07:13;;;;;;;20.50;11.40;;;;;;;;;;104380;1285;545515;-73
2023/11/25 14:10:50;;;;;;;28.30;16.10;;;;;;;;;;103708;1291;545530;-75
2023/11/25 14:14:27;;;;;;;41.70;26.90;;;;;;;;;;103794;1292;546629;-73
2023/11/25 14:18:07;;;;;;;20.90;15.20;;;;;;;;;;103728;1291;544789;-72
2023/11/25 14:21:48;;;;;;;25.10;10.10;;;;;;;;;;103667;1291;547768;-73
2023/11/25 14:25:20;;;;;;;25.40;9.90;;;;;;;;;;103991;1289;545855;-72
2023/11/25 14:28:58;;;;;;;15.90;7.60;;;;;;;;;;103757;1291;545423;-72
2023/11/25 14:32:35;;;;;;;18.60;8.90;;;;;;;;;;103868;1291;545142;-72
2023/11/25 14:36:13;;;;;;;32.60;14.30;;;;;;;;;;103749;1289;545696;-73
2023/11/25 14:39:52;;;;;;;22.70;9.70;;;;;;;;;;103774;1291;545023;-72
2023/11/25 14:43:28;;;;;;;16.50;7.00;;;;;;;;;;103960;1292;544994;-73
2023/11/25 14:47:07;;;;;;;23.80;10.00;;;;;;;;;;103853;1292;545493;-73
2023/11/25 14:51:02;;;;;;;22.40;9.90;;;;;;;;;;103769;1289;548263;-76
2023/11/25 14:54:22;;;;;;;18.20;7.90;;;;;;;;;;103759;1294;545490;-74
2023/11/25 14:57:57;;;;;;;15.60;6.20;;;;;;;;;;103849;1290;545145;-73
2023/11/25 15:01:35;;;;;;;14.40;6.40;;;;;;;;;;103857;1292;545063;-72
2023/11/25 15:05:12;;;;;;;17.10;7.90;;;;;;;;;;103834;1295;544874;-72
2023/11/25 15:08:50;;;;;;;12.30;5.40;;;;;;;;;;103797;1290;544938;-72
2023/11/25 15:12:29;;;;;;;17.10;7.60;;;;;;;;;;103759;1291;545647;-72
2023/11/25 15:16:05;;;;;;;11.50;4.10;;;;;;;;;;103776;1295;544924;-72
2023/11/25 15:19:41;;;;;;;14.40;4.50;;;;;;;;;;103958;1289;544749;-72
2023/11/25 15:23:20;;;;;;;51.00;23.20;;;;;;;;;;104330;1286;545316;-73
2023/11/25 15:26:57;;;;;;;67.50;28.50;;;;;;;;;;103547;1298;544935;-72
2023/11/25 15:30:40;;;;;;;57.40;23.30;;;;;;;;;;103566;1297;547751;-72
2023/11/25 15:34:12;;;;;;;14.60;5.90;;;;;;;;;;103830;1297;545030;-72
2023/11/25 15:37:50;;;;;;;19.20;6.30;;;;;;;;;;103865;1289;545394;-73
2023/11/25 15:41:23;;;;;;;20.30;6.70;;;;;;;;;;104648;1289;545054;-70
2023/11/25 15:45:00;;;;;;;14.40;6.80;;;;;;;;;;104115;1292;544945;-71
2023/11/25 15:48:42;;;;;;;17.80;7.50;;;;;;;;;;104720;1283;545036;-72
2023/11/25 15:52:19;;;;;;;23.70;9.30;;;;;;;;;;103840;1291;545524;-72
2023/11/25 15:55:57;;;;;;;25.60;9.50;;;;;;;;;;103877;1292;545543;-74
2023/11/25 15:59:36;;;;;;;21.00;8.00;;;;;;;;;;103795;1289;545042;-75
2023/11/25 16:03:12;;;;;;;22.70;9.00;;;;;;;;;;103824;1295;545032;-73
2023/11/25 16:06:55;;;;;;;21.30;8.10;;;;;;;;;;103556;1292;545049;-73
2023/11/25 16:10:24;;;;;;;30.70;13.40;;;;;;;;;;103895;1292;546004;-73
2023/11/25 16:14:04;;;;;;;40.10;20.40;;;;;;;;;;103810;1292;544778;-72
2023/11/25 16:17:42;;;;;;;30.90;14.10;;;;;;;;;;103651;1295;545451;-72
2023/11/25 16:21:19;;;;;;;33.10;14.40;;;;;;;;;;103652;1292;544738;-72
2023/11/25 16:24:53;;;;;;;106.90;59.10;;;;;;;;;;103996;1288;545515;-74
2023/11/25 16:28:41;;;;;;;47.00;29.00;;;;;;;;;;103566;1298;549171;-78
2023/11/25 16:32:18;;;;;;;20.40;9.20;;;;;;;;;;103903;1292;544752;-76
2023/11/25 16:35:49;;;;;;;20.20;9.60;;;;;;;;;;103821;1288;544745;-72
2023/11/25 16:39:27;;;;;;;19.10;7.70;;;;;;;;;;103733;1295;545198;-73
2023/11/25 16:43:03;;;;;;;17.60;8.40;;;;;;;;;;103803;1291;545043;-72
2023/11/25 16:46:43;;;;;;;17.30;7.20;;;;;;;;;;103853;1289;545785;-72
2023/11/25 16:50:19;;;;;;;14.90;6.10;;;;;;;;;;103759;1290;545050;-72
2023/11/25 16:54:15;;;;;;;15.50;6.80;;;;;;;;;;103771;1292;547875;-73
2023/11/25 16:57:36;;;;;;;40.60;19.60;;;;;;;;;;104313;1286;545423;-74
2023/11/25 17:01:11;;;;;;;21.90;10.20;;;;;;;;;;103831;1289;544755;-73
2023/11/25 17:04:51;;;;;;;18.40;9.10;;;;;;;;;;103586;1294;545057;-76
2023/11/25 17:08:26;;;;;;;26.20;10.80;;;;;;;;;;103892;1290;545345;-72
2023/11/25 17:12:03;;;;;;;27.90;12.40;;;;;;;;;;104078;1289;544836;-76
2023/11/25 17:15:46;;;;;;;28.30;13.30;;;;;;;;;;104202;1286;544887;-74
2023/11/25 17:19:22;;;;;;;36.90;17.40;;;;;;;;;;103373;1295;544942;-75
2023/11/25 17:23:11;;;;;;;34.60;20.40;;;;;;;;;;103435;1294;545347;-72
2023/11/25 17:26:39;;;;;;;25.80;12.50;;;;;;;;;;103950;1289;545233;-74
2023/11/25 17:30:26;;;;;;;27.20;12.70;;;;;;;;;;103779;1292;550262;-78
2023/11/25 17:33:49;;;;;;;31.60;13.20;;;;;;;;;;103837;1289;544859;-72
2023/11/25 17:37:31;;;;;;;35.00;15.10;;;;;;;;;;103726;1290;547746;-72
2023/11/25 17:41:03;;;;;;;90.40;36.20;;;;;;;;;;103832;1295;545382;-73
2023/11/25 17:44:43;;;;;;;45.50;22.10;;;;;;;;;;103922;1289;544798;-73
2023/11/25 17:48:18;;;;;;;47.40;24.30;;;;;;;;;;103603;1295;544818;-72
2023/11/25 17:51:52;;;;;;;35.00;17.40;;;;;;;;;;103988;1289;544783;-74
2023/11/25 17:55:34;;;;;;;43.60;22.30;;;;;;;;;;103777;1290;545117;-73
2023/11/25 17:59:13;;;;;;;33.60;16.80;;;;;;;;;;103655;1291;546673;-73
2023/11/25 18:02:56;;;;;;;41.70;22.30;;;;;;;;;;104371;1283;548145;-72
2023/11/25 18:06:25;;;;;;;30.10;19.10;;;;;;;;;;103833;1291;545472;-71
2023/11/25 18:10:04;;;;;;;18.20;9.00;;;;;;;;;;103939;1291;545231;-72
2023/11/25 18:13:40;;;;;;;19.70;11.10;;;;;;;;;;103755;1292;546018;-72
2023/11/25 18:17:18;;;;;;;17.40;9.90;;;;;;;;;;104017;1291;545408;-73
2023/11/25 18:20:55;;;;;;;23.00;13.20;;;;;;;;;;104466;1288;544972;-72
2023/11/25 18:24:36;;;;;;;17.10;7.90;;;;;;;;;;103794;1295;544714;-73
2023/11/25 18:28:13;;;;;;;24.90;11.10;;;;;;;;;;103669;1292;546501;-74
2023/11/25 18:31:48;;;;;;;46.20;19.10;;;;;;;;;;103810;1292;545159;-72
2023/11/25 18:35:26;;;;;;;59.60;25.50;;;;;;;;;;103874;1290;546469;-74
2023/11/25 18:39:04;;;;;;;45.60;21.30;;;;;;;;;;103788;1289;544979;-72
2023/11/25 18:42:41;;;;;;;48.30;22.70;;;;;;;;;;103838;1292;546024;-72
2023/11/25 18:46:20;;;;;;;66.00;30.70;;;;;;;;;;103633;1291;545161;-73
2023/11/25 18:49:51;;;;;;;36.80;17.50;;;;;;;;;;103829;1289;544863;-72
2023/11/25 18:53:32;;;;;;;26.10;11.60;;;;;;;;;;103947;1293;545359;-74
2023/11/25 18:57:10;;;;;;;25.80;12.90;;;;;;;;;;103853;1289;545592;-73
2023/11/25 19:01:09;;;;;;;28.60;16.60;;;;;;;;;;103868;1292;547998;-72
2023/11/25 19:04:27;;;;;;;18.90;9.40;;;;;;;;;;103835;1291;544839;-74
2023/11/25 19:08:04;;;;;;;23.20;11.50;;;;;;;;;;104090;1288;544974;-73
2023/11/25 19:11:42;;;;;;;19.80;9.90;;;;;;;;;;104183;1286;545537;-73
2023/11/25 19:15:20;;;;;;;19.50;8.90;;;;;;;;;;103813;1290;544772;-75
2023/11/25 19:18:51;;;;;;;22.10;11.00;;;;;;;;;;103928;1289;544608;-75
2023/11/25 19:22:32;;;;;;;20.60;10.30;;;;;;;;;;103832;1292;545642;-71
2023/11/25 19:26:15;;;;;;;34.30;14.70;;;;;;;;;;104274;1284;546236;-74
2023/11/25 19:29:47;;;;;;;38.00;19.50;;;;;;;;;;103848;1292;544800;-72
2023/11/25 19:33:25;;;;;;;21.60;10.90;;;;;;;;;;103874;1289;545955;-73
2023/11/25 19:37:24;;;;;;;32.60;24.20;;;;;;;;;;103710;1294;547778;-78
2023/11/25 19:40:40;;;;;;;16.20;8.60;;;;;;;;;;104742;1290;544972;-72
2023/11/25 19:44:17;;;;;;;47.00;17.60;;;;;;;;;;103798;1289;545422;-73
2023/11/25 19:47:52;;;;;;;25.60;9.60;;;;;;;;;;103837;1292;544772;-72
2023/11/25 19:51:53;;;;;;;21.40;9.60;;;;;;;;;;103472;1298;545334;-78
2023/11/25 19:55:12;;;;;;;19.50;8.50;;;;;;;;;;103525;1294;545362;-73
2023/11/25 19:58:51;;;;;;;19.40;8.70;;;;;;;;;;104346;1282;547921;-72
2023/11/25 20:02:23;;;;;;;15.80;8.00;;;;;;;;;;104738;1286;546245;-72
2023/11/25 20:06:07;;;;;;;19.40;10.10;;;;;;;;;;104299;1285;546262;-72
2023/11/25 20:09:41;;;;;;;24.70;12.10;;;;;;;;;;103844;1289;544804;-72
2023/11/25 20:13:15;;;;;;;14.60;7.70;;;;;;;;;;104034;1291;545063;-73
2023/11/25 20:17:10;;;;;;;15.40;8.30;;;;;;;;;;103891;1289;547902;-71
2023/11/25 20:20:34;;;;;;;14.00;6.50;;;;;;;;;;103792;1289;545003;-72
2023/11/25 20:24:10;;;;;;;18.00;10.40;;;;;;;;;;103861;1292;545399;-72
2023/11/25 20:27:46;;;;;;;25.90;15.70;;;;;;;;;;104031;1288;545535;-72
2023/11/25 20:31:23;;;;;;;19.30;9.00;;;;;;;;;;103783;1291;545061;-72
2023/11/25 20:35:03;;;;;;;21.20;11.50;;;;;;;;;;103873;1290;545040;-72
2023/11/25 20:38:40;;;;;;;33.80;17.60;;;;;;;;;;103708;1292;544905;-72
2023/11/25 20:42:16;;;;;;;22.30;12.80;;;;;;;;;;103813;1292;545677;-72
2023/11/25 20:45:52;;;;;;;20.30;12.20;;;;;;;;;;103780;1289;545705;-71
2023/11/25 20:49:32;;;;;;;13.50;7.80;;;;;;;;;;103762;1291;544822;-73
2023/11/25 20:53:11;;;;;;;15.20;7.40;;;;;;;;;;103461;1300;545040;-71
2023/11/25 20:56:47;;;;;;;15.00;7.20;;;;;;;;;;103763;1292;544949;-74